Time;durP1;ratioP1;P1;durP2;ratioP2;P2;SDS_P1;SDS_P2;PMS_P1;PMS_P2;Temp;Humidity;BMP_temperature;BMP_pressure;BME280_temperature;BME280_humidity;BME280_pressure;Samples;Min_cycle;Max_cycle;Signal;HPM_P1;HPM_P2
2022/06/29 00:00:18;;;;;;;4.97;2.80;;;17.50;99.90;;;;;;4992702;28;20601;-68
2022/06/29 00:02:45;;;;;;;5.07;3.03;;;17.50;99.90;;;;;;4988736;28;21167;-68
2022/06/29 00:05:13;;;;;;;6.72;3.40;;;17.50;99.90;;;;;;5005684;28;20047;-64
2022/06/29 00:07:39;;;;;;;4.53;2.85;;;17.50;99.90;;;;;;5013737;28;20041;-65
2022/06/29 00:10:06;;;;;;;6.53;3.10;;;17.50;99.90;;;;;;4988943;28;20103;-66
2022/06/29 00:12:32;;;;;;;6.00;3.33;;;17.40;99.90;;;;;;4984400;28;20040;-66
2022/06/29 00:15:02;;;;;;;6.97;4.05;;;17.40;99.90;;;;;;5006907;28;20042;-66
2022/06/29 00:17:33;;;;;;;6.13;3.45;;;17.40;99.90;;;;;;5014266;28;20614;-67
2022/06/29 00:20:00;;;;;;;7.53;3.33;;;17.40;99.90;;;;;;4990763;28;20033;-64
2022/06/29 00:22:27;;;;;;;7.70;3.92;;;17.40;99.90;;;;;;5015845;28;20042;-65
2022/06/29 00:24:53;;;;;;;5.95;3.40;;;17.30;99.90;;;;;;5010842;28;20077;-66
2022/06/29 00:27:19;;;;;;;7.10;3.20;;;17.30;99.90;;;;;;5001248;28;20130;-67
2022/06/29 00:29:45;;;;;;;9.13;3.53;;;17.30;99.90;;;;;;4996049;28;20065;-67
2022/06/29 00:32:11;;;;;;;4.30;3.25;;;17.30;99.90;;;;;;5014862;28;20088;-65
2022/06/29 00:34:37;;;;;;;7.05;3.58;;;17.20;99.90;;;;;;5012315;28;20136;-64
2022/06/29 00:37:03;;;;;;;7.03;3.80;;;17.20;99.90;;;;;;4995250;28;20073;-66
2022/06/29 00:39:29;;;;;;;10.02;3.53;;;17.20;99.90;;;;;;5013569;28;20050;-69
2022/06/29 00:41:55;;;;;;;5.05;3.30;;;17.20;99.90;;;;;;5012236;28;20049;-66
2022/06/29 00:44:21;;;;;;;5.57;3.88;;;17.20;99.90;;;;;;5003071;28;20510;-67
2022/06/29 00:46:51;;;;;;;5.80;3.38;;;17.10;99.90;;;;;;5017105;28;22129;-66
2022/06/29 00:49:19;;;;;;;5.93;3.45;;;17.10;99.90;;;;;;5015513;28;20051;-67
2022/06/29 00:51:47;;;;;;;12.68;3.90;;;17.10;99.90;;;;;;4988590;28;20045;-65
2022/06/29 00:54:20;;;;;;;5.30;3.78;;;17.00;99.90;;;;;;5004312;28;20053;-66
2022/06/29 00:56:46;;;;;;;;;;;17.00;99.90;;;;;;5019002;28;20040;-67
2022/06/29 00:59:15;;;;;;;7.72;4.00;;;17.00;99.90;;;;;;5008693;28;19923;-65
2022/06/29 01:01:42;;;;;;;5.40;3.88;;;16.90;99.90;;;;;;5015092;28;20080;-66
2022/06/29 01:04:08;;;;;;;10.52;3.63;;;16.90;99.90;;;;;;4993209;28;20045;-66
2022/06/29 01:06:34;;;;;;;6.60;3.50;;;16.90;99.90;;;;;;5017728;28;20056;-65
2022/06/29 01:09:01;;;;;;;5.05;3.80;;;16.80;99.90;;;;;;5018747;28;20044;-67
2022/06/29 01:11:27;;;;;;;10.13;4.20;;;16.80;99.90;;;;;;5021165;28;20557;-66
2022/06/29 01:13:53;;;;;;;6.97;4.55;;;16.80;99.90;;;;;;5015105;28;20049;-66
2022/06/29 01:16:19;;;;;;;5.80;4.45;;;16.70;99.90;;;;;;4993933;28;20050;-66
2022/06/29 01:18:45;;;;;;;7.47;4.35;;;16.70;99.90;;;;;;4996450;28;20506;-66
2022/06/29 01:21:11;;;;;;;6.53;4.35;;;16.70;99.90;;;;;;5001580;28;22031;-66
2022/06/29 01:23:37;;;;;;;11.18;4.35;;;16.70;99.90;;;;;;4999625;28;20053;-65
2022/06/29 01:26:05;;;;;;;6.07;4.13;;;16.70;99.90;;;;;;5016527;28;20505;-66
2022/06/29 01:28:31;;;;;;;5.88;4.30;;;16.60;99.90;;;;;;5006154;28;20143;-65
2022/06/29 01:30:58;;;;;;;6.80;4.35;;;16.70;99.90;;;;;;5009556;28;20062;-65
2022/06/29 01:33:24;;;;;;;9.20;4.78;;;16.60;99.90;;;;;;5011387;28;20042;-65
2022/06/29 01:35:50;;;;;;;7.68;4.30;;;16.60;99.90;;;;;;4994103;28;20154;-66
2022/06/29 01:38:19;;;;;;;9.45;4.60;;;16.60;99.90;;;;;;5016496;28;20056;-67
2022/06/29 01:40:46;;;;;;;5.60;4.70;;;16.60;99.90;;;;;;5018259;28;20041;-65
2022/06/29 01:43:12;;;;;;;7.00;4.50;;;16.60;99.90;;;;;;5014079;28;20045;-66
2022/06/29 01:45:38;;;;;;;8.40;4.75;;;16.60;99.90;;;;;;5012318;28;20051;-65
2022/06/29 01:48:04;;;;;;;7.13;4.32;;;16.60;99.90;;;;;;5014502;28;20115;-67
2022/06/29 01:50:30;;;;;;;9.45;4.90;;;16.60;99.90;;;;;;4997232;28;20135;-65
2022/06/29 01:52:56;;;;;;;5.57;4.55;;;16.60;99.90;;;;;;5014871;28;20083;-65
2022/06/29 01:55:22;;;;;;;7.45;4.65;;;16.60;99.90;;;;;;5010013;28;20041;-67
2022/06/29 01:57:48;;;;;;;10.52;4.97;;;16.60;99.90;;;;;;5015449;28;20049;-65
2022/06/29 02:00:14;;;;;;;6.35;4.85;;;16.60;99.90;;;;;;5014702;28;20566;-66
2022/06/29 02:02:40;;;;;;;11.02;4.72;;;16.60;99.90;;;;;;5012738;28;20048;-67
2022/06/29 02:05:06;;;;;;;5.40;4.50;;;16.60;99.90;;;;;;5012202;28;20512;-65
2022/06/29 02:07:32;;;;;;;8.95;5.68;;;16.60;99.90;;;;;;5014430;28;20073;-67
2022/06/29 02:09:58;;;;;;;7.95;5.07;;;16.60;99.90;;;;;;5003045;28;20143;-68
2022/06/29 02:12:24;;;;;;;6.25;4.82;;;16.60;99.90;;;;;;5015436;28;20049;-66
2022/06/29 02:14:49;;;;;;;9.85;5.13;;;16.60;99.90;;;;;;5009741;28;20107;-66
2022/06/29 02:17:15;;;;;;;6.15;4.90;;;16.60;99.90;;;;;;4985818;28;20810;-66
2022/06/29 02:19:41;;;;;;;6.00;4.72;;;16.60;99.90;;;;;;5007230;28;20041;-66
2022/06/29 02:22:07;;;;;;;8.10;4.95;;;16.60;99.90;;;;;;5000369;28;20041;-66
2022/06/29 02:24:33;;;;;;;7.47;4.75;;;16.60;99.90;;;;;;5014311;28;20048;-68
2022/06/29 02:26:58;;;;;;;9.65;4.88;;;16.60;99.90;;;;;;5011508;28;20037;-65
2022/06/29 02:29:24;;;;;;;10.20;4.93;;;16.60;99.90;;;;;;5015896;28;20049;-65
2022/06/29 02:34:43;;;;;;;7.75;5.15;;;16.60;99.90;;;;;;5008550;28;20033;-65
2022/06/29 02:37:10;;;;;;;8.98;5.25;;;16.60;99.90;;;;;;5008403;28;20184;-69
2022/06/29 02:39:36;;;;;;;6.88;5.18;;;16.60;99.90;;;;;;5013820;28;20048;-65
2022/06/29 02:42:02;;;;;;;6.53;4.82;;;16.60;99.90;;;;;;5008146;28;20388;-66
2022/06/29 02:44:28;;;;;;;9.50;5.00;;;16.60;99.90;;;;;;4976588;28;20116;-66
2022/06/29 02:46:54;;;;;;;8.35;5.00;;;16.60;99.90;;;;;;5006655;28;20179;-65
2022/06/29 02:49:19;;;;;;;8.48;5.32;;;16.60;99.90;;;;;;4999211;28;20041;-65
2022/06/29 02:51:45;;;;;;;8.75;5.40;;;16.60;99.90;;;;;;5013512;28;20076;-66
2022/06/29 02:54:11;;;;;;;6.68;5.10;;;16.60;99.90;;;;;;5008420;28;20045;-66
2022/06/29 02:56:37;;;;;;;9.15;5.40;;;16.60;99.90;;;;;;5003739;28;20130;-65
2022/06/29 02:59:03;;;;;;;7.00;5.05;;;16.60;99.90;;;;;;5031451;28;20053;-65
2022/06/29 03:01:28;;;;;;;7.00;4.95;;;16.60;99.90;;;;;;4988274;28;20046;-66
2022/06/29 03:03:55;;;;;;;9.70;5.13;;;16.60;99.90;;;;;;4998665;28;20057;-66
2022/06/29 03:06:20;;;;;;;10.98;5.60;;;16.60;99.90;;;;;;5009982;28;20140;-65
2022/06/29 03:08:46;;;;;;;7.75;5.13;;;16.60;99.90;;;;;;5000222;28;20048;-67
2022/06/29 03:11:12;;;;;;;9.80;4.75;;;16.60;99.90;;;;;;4993816;28;20053;-65
2022/06/29 03:13:38;;;;;;;7.05;5.25;;;16.50;99.90;;;;;;5015782;28;20132;-66
2022/06/29 03:16:04;;;;;;;8.38;5.60;;;16.50;99.90;;;;;;5012681;28;20045;-66
2022/06/29 03:18:30;;;;;;;7.82;5.13;;;16.50;99.90;;;;;;5013306;28;20067;-65
2022/06/29 03:20:56;;;;;;;6.78;5.63;;;16.50;99.90;;;;;;4976767;28;20037;-67
2022/06/29 03:23:22;;;;;;;9.50;5.57;;;16.50;99.90;;;;;;4995879;28;20049;-65
2022/06/29 03:25:48;;;;;;;8.52;5.38;;;16.50;99.90;;;;;;5003985;28;20060;-66
2022/06/29 03:28:13;;;;;;;10.50;5.60;;;16.50;99.90;;;;;;5015922;28;20045;-66
2022/06/29 03:30:39;;;;;;;9.05;5.38;;;16.50;99.90;;;;;;5022769;28;20064;-66
2022/06/29 03:33:05;;;;;;;6.72;5.38;;;16.50;99.90;;;;;;5008079;28;20558;-66
2022/06/29 03:35:31;;;;;;;10.98;6.07;;;16.50;99.90;;;;;;5027547;28;20037;-67
2022/06/29 03:37:56;;;;;;;8.65;5.20;;;16.50;99.90;;;;;;5024877;28;20044;-65
2022/06/29 03:40:22;;;;;;;5.90;5.18;;;16.50;99.90;;;;;;5023963;28;20041;-66
2022/06/29 03:42:48;;;;;;;6.78;5.93;;;16.40;99.90;;;;;;5029216;28;20034;-65
2022/06/29 03:45:14;;;;;;;9.52;5.90;;;16.40;99.90;;;;;;5016210;28;20057;-65
2022/06/29 03:47:40;;;;;;;6.97;5.53;;;16.40;99.90;;;;;;5026145;28;20124;-66
2022/06/29 03:50:07;;;;;;;7.07;5.70;;;16.40;99.90;;;;;;4987157;28;20040;-64
2022/06/29 03:52:33;;;;;;;10.40;6.20;;;16.40;99.90;;;;;;4995430;28;20537;-66
2022/06/29 03:54:59;;;;;;;8.40;5.78;;;16.40;99.90;;;;;;5021915;28;20056;-66
2022/06/29 03:57:25;;;;;;;9.23;6.00;;;16.40;99.90;;;;;;5005189;28;20069;-66
2022/06/29 03:59:51;;;;;;;7.07;5.80;;;16.40;99.90;;;;;;5026652;28;20060;-66
2022/06/29 04:02:17;;;;;;;7.57;6.15;;;16.40;99.90;;;;;;5003858;28;20038;-66
2022/06/29 04:04:43;;;;;;;8.15;5.72;;;16.40;99.90;;;;;;5008834;28;20514;-65
2022/06/29 04:07:09;;;;;;;6.97;6.00;;;16.40;99.90;;;;;;5008955;28;20133;-65
2022/06/29 04:09:35;;;;;;;7.63;5.57;;;16.40;99.90;;;;;;5011140;28;20065;-66
2022/06/29 04:12:02;;;;;;;8.10;5.85;;;16.40;99.90;;;;;;5010607;28;20096;-65
2022/06/29 04:14:28;;;;;;;6.93;5.75;;;16.40;99.90;;;;;;5024833;28;20045;-66
2022/06/29 04:16:56;;;;;;;6.68;6.00;;;16.30;99.90;;;;;;4986403;28;20036;-66
2022/06/29 04:19:23;;;;;;;7.93;6.10;;;16.40;99.90;;;;;;5027322;28;20140;-65
2022/06/29 04:21:49;;;;;;;6.78;6.05;;;16.40;99.90;;;;;;5018440;28;20441;-65
2022/06/29 04:24:15;;;;;;;6.88;5.85;;;16.40;99.90;;;;;;5023102;28;21029;-66
2022/06/29 04:26:42;;;;;;;8.85;6.07;;;16.40;99.90;;;;;;5022622;28;20514;-66
2022/06/29 04:29:08;;;;;;;7.68;6.07;;;16.40;99.90;;;;;;5027223;28;20937;-65
2022/06/29 04:31:33;;;;;;;7.57;6.18;;;16.40;99.90;;;;;;5011902;28;20061;-65
2022/06/29 04:34:01;;;;;;;9.77;6.10;;;16.40;99.90;;;;;;4990409;28;20064;-65
2022/06/29 04:36:27;;;;;;;8.32;6.80;;;16.50;99.90;;;;;;5023697;28;20044;-66
2022/06/29 04:38:54;;;;;;;7.88;6.22;;;16.50;99.90;;;;;;5012746;28;20057;-65
2022/06/29 04:41:20;;;;;;;6.75;5.90;;;16.50;99.90;;;;;;5032689;28;20441;-65
2022/06/29 04:43:47;;;;;;;6.70;5.97;;;16.50;99.90;;;;;;5012143;28;20063;-67
2022/06/29 04:46:19;;;;;;;8.15;6.40;;;16.50;99.90;;;;;;5025844;28;20419;-66
2022/06/29 04:48:46;;;;;;;6.07;5.25;;;16.50;99.90;;;;;;5024546;28;20506;-66
2022/06/29 04:51:12;;;;;;;8.80;6.43;;;16.60;99.90;;;;;;5006952;28;20406;-65
2022/06/29 04:53:38;;;;;;;8.68;6.43;;;16.60;99.90;;;;;;5027172;28;20139;-66
2022/06/29 04:56:05;;;;;;;9.10;6.85;;;16.60;99.90;;;;;;5040036;28;20041;-66
2022/06/29 04:58:30;;;;;;;8.98;6.20;;;16.70;99.90;;;;;;5010019;28;20086;-65
2022/06/29 05:00:56;;;;;;;7.90;6.40;;;16.70;99.90;;;;;;5010058;28;20446;-66
2022/06/29 05:03:22;;;;;;;8.38;6.68;;;16.70;99.90;;;;;;4982825;28;20052;-65
2022/06/29 05:05:48;;;;;;;7.57;6.60;;;16.70;99.90;;;;;;5006076;28;20049;-64
2022/06/29 05:08:14;;;;;;;7.95;6.78;;;16.80;99.90;;;;;;5008757;28;20054;-65
2022/06/29 05:10:41;;;;;;;13.98;6.55;;;16.80;99.90;;;;;;4995482;28;20048;-65
2022/06/29 05:13:09;;;;;;;7.63;6.32;;;16.80;99.90;;;;;;5010969;28;20049;-65
2022/06/29 05:15:35;;;;;;;12.20;6.10;;;16.90;99.90;;;;;;5009085;28;20128;-66
2022/06/29 05:18:01;;;;;;;8.38;5.78;;;16.90;99.90;;;;;;4971250;28;20049;-65
2022/06/29 05:20:27;;;;;;;9.50;5.90;;;17.00;99.90;;;;;;5023276;28;20107;-65
2022/06/29 05:22:53;;;;;;;6.90;5.97;;;17.00;99.90;;;;;;5020628;28;20041;-65
2022/06/29 05:25:20;;;;;;;11.60;6.18;;;17.10;99.90;;;;;;5009088;28;20052;-65
2022/06/29 05:27:46;;;;;;;6.38;5.32;;;17.20;99.90;;;;;;5023267;28;20073;-66
2022/06/29 05:30:12;;;;;;;8.20;5.80;;;17.20;99.90;;;;;;5025026;28;20057;-65
2022/06/29 05:32:38;;;;;;;6.85;5.70;;;17.30;99.90;;;;;;4997867;28;20045;-66
2022/06/29 05:35:05;;;;;;;6.72;5.85;;;17.30;99.90;;;;;;5025511;28;20130;-66
2022/06/29 05:37:31;;;;;;;7.55;6.18;;;17.40;99.90;;;;;;5021546;28;20058;-64
2022/06/29 05:39:57;;;;;;;8.93;5.53;;;17.40;99.90;;;;;;5021709;28;20171;-66
2022/06/29 05:42:23;;;;;;;7.38;5.75;;;17.50;99.90;;;;;;5030264;28;20132;-66
2022/06/29 05:44:49;;;;;;;6.82;5.90;;;17.40;99.90;;;;;;5007889;28;20049;-66
2022/06/29 05:47:15;;;;;;;7.00;5.25;;;17.50;99.90;;;;;;4999604;28;21223;-65
2022/06/29 05:49:41;;;;;;;5.90;4.93;;;17.50;99.90;;;;;;5023117;28;20403;-65
2022/06/29 05:52:07;;;;;;;5.85;5.18;;;17.60;99.90;;;;;;5016012;28;20092;-66
2022/06/29 05:54:33;;;;;;;6.60;5.03;;;17.70;99.90;;;;;;4980105;28;20124;-66
2022/06/29 05:57:00;;;;;;;8.32;4.65;;;17.70;99.90;;;;;;5010380;28;20114;-65
2022/06/29 05:59:26;;;;;;;11.07;4.65;;;17.80;99.90;;;;;;4990476;28;20064;-65
2022/06/29 06:01:52;;;;;;;10.95;5.00;;;17.90;99.90;;;;;;4993527;28;20608;-65
2022/06/29 06:04:18;;;;;;;8.48;5.03;;;17.90;99.90;;;;;;4986910;28;20053;-65
2022/06/29 06:06:43;;;;;;;6.95;5.30;;;18.00;99.90;;;;;;5016521;28;20083;-66
2022/06/29 06:09:10;;;;;;;13.30;5.22;;;18.10;99.90;;;;;;5001198;28;20053;-65
2022/06/29 06:11:36;;;;;;;7.68;4.78;;;18.10;99.90;;;;;;4991260;28;20052;-65
2022/06/29 06:14:02;;;;;;;8.90;4.90;;;18.20;99.90;;;;;;4997874;28;20518;-62
2022/06/29 06:16:28;;;;;;;9.90;4.97;;;18.30;99.90;;;;;;5019188;28;20049;-63
2022/06/29 06:18:54;;;;;;;7.00;4.30;;;18.30;99.90;;;;;;5019001;28;20377;-63
2022/06/29 06:21:21;;;;;;;9.30;4.70;;;18.40;99.90;;;;;;5017924;28;20841;-63
2022/06/29 06:23:47;;;;;;;5.28;4.47;;;18.40;99.90;;;;;;5017347;28;20060;-63
2022/06/29 06:26:13;;;;;;;10.25;4.18;;;18.50;99.90;;;;;;5004160;28;20500;-63
2022/06/29 06:28:40;;;;;;;7.00;4.63;;;18.60;99.90;;;;;;5034172;28;20068;-63
2022/06/29 06:31:07;;;;;;;5.22;4.13;;;18.60;99.90;;;;;;5007104;28;20103;-62
2022/06/29 06:33:33;;;;;;;5.80;4.32;;;18.80;99.90;;;;;;5022056;28;20056;-63
2022/06/29 06:35:59;;;;;;;5.40;3.80;;;18.90;99.90;;;;;;4975026;28;20124;-63
2022/06/29 06:38:25;;;;;;;4.40;3.63;;;19.00;99.90;;;;;;5010176;28;20045;-63
2022/06/29 06:43:35;;;;;;;8.50;3.50;;;19.20;99.60;;;;;;4994312;28;20053;-63
2022/06/29 06:46:01;;;;;;;9.02;3.65;;;19.30;99.10;;;;;;4977575;28;20102;-63
2022/06/29 06:48:27;;;;;;;8.90;3.42;;;19.40;98.80;;;;;;5006188;28;20073;-63
2022/06/29 06:50:53;;;;;;;4.45;3.30;;;19.50;98.60;;;;;;5023890;28;20054;-63
2022/06/29 06:53:19;;;;;;;5.10;3.00;;;19.60;98.50;;;;;;4992776;28;20041;-63
2022/06/29 06:55:45;;;;;;;8.18;3.05;;;19.70;98.20;;;;;;5009976;28;20044;-63
2022/06/29 06:58:11;;;;;;;8.25;3.20;;;19.90;98.10;;;;;;5031859;28;20041;-63
2022/06/29 07:00:37;;;;;;;4.43;2.72;;;20.00;97.70;;;;;;5014739;28;20033;-63
2022/06/29 07:03:02;;;;;;;7.30;2.67;;;20.10;97.20;;;;;;5029448;28;20040;-63
2022/06/29 07:05:28;;;;;;;6.72;2.90;;;20.20;96.90;;;;;;5000886;28;20052;-63
2022/06/29 07:07:54;;;;;;;5.75;2.65;;;20.30;96.10;;;;;;5027178;28;20052;-63
2022/06/29 07:10:20;;;;;;;6.28;2.67;;;20.40;95.60;;;;;;5011481;28;20365;-63
2022/06/29 07:12:46;;;;;;;9.13;2.70;;;20.50;95.10;;;;;;4997064;28;20056;-63
2022/06/29 07:15:12;;;;;;;3.70;2.28;;;20.60;94.60;;;;;;4997716;28;20384;-63
2022/06/29 07:17:37;;;;;;;4.95;2.55;;;20.70;93.90;;;;;;5025364;28;20064;-63
2022/06/29 07:20:06;;;;;;;4.78;2.65;;;20.80;93.50;;;;;;5014117;28;20045;-63
2022/06/29 07:22:32;;;;;;;5.70;2.40;;;20.90;93.40;;;;;;4992630;28;20521;-63
2022/06/29 07:24:58;;;;;;;4.78;2.03;;;21.00;92.90;;;;;;5023889;28;20053;-63
2022/06/29 07:27:23;;;;;;;8.32;2.33;;;21.10;92.90;;;;;;5013533;28;20049;-63
2022/06/29 07:29:52;;;;;;;4.18;2.20;;;21.20;92.10;;;;;;5016476;28;20554;-63
2022/06/29 07:32:21;;;;;;;5.53;2.15;;;21.20;91.30;;;;;;4991128;28;20141;-63
2022/06/29 07:34:47;;;;;;;10.77;2.17;;;21.40;91.30;;;;;;5020541;28;20076;-63
2022/06/29 07:37:13;;;;;;;2.45;2.00;;;21.50;91.30;;;;;;5003948;28;20045;-63
2022/06/29 07:39:39;;;;;;;8.85;2.25;;;21.50;91.00;;;;;;4989592;28;20056;-63
2022/06/29 07:42:05;;;;;;;5.63;2.30;;;21.60;90.70;;;;;;5016916;28;20045;-63
2022/06/29 07:44:31;;;;;;;4.55;1.88;;;21.70;90.50;;;;;;5007754;28;20037;-63
2022/06/29 07:46:57;;;;;;;4.07;2.10;;;21.80;90.40;;;;;;5021841;28;20107;-63
2022/06/29 07:49:23;;;;;;;3.50;1.92;;;21.90;89.80;;;;;;4999836;28;20120;-63
2022/06/29 07:51:52;;;;;;;3.33;2.10;;;22.00;89.40;;;;;;4993825;28;20573;-63
2022/06/29 07:54:17;;;;;;;4.28;2.10;;;22.00;87.70;;;;;;5030538;28;20053;-63
2022/06/29 07:56:43;;;;;;;4.20;2.08;;;22.10;87.90;;;;;;5020745;28;20045;-63
2022/06/29 07:59:09;;;;;;;6.10;2.00;;;22.20;87.30;;;;;;5000420;28;20399;-63
2022/06/29 08:01:35;;;;;;;6.30;2.28;;;22.30;87.30;;;;;;5014552;28;20037;-63
2022/06/29 08:04:01;;;;;;;6.10;1.90;;;22.40;86.30;;;;;;5023002;28;20049;-63
2022/06/29 08:06:27;;;;;;;5.07;1.67;;;22.50;86.10;;;;;;5022048;28;20072;-63
2022/06/29 08:08:53;;;;;;;2.70;1.40;;;22.60;84.70;;;;;;5000435;28;20048;-63
2022/06/29 08:11:19;;;;;;;3.20;1.90;;;22.70;84.80;;;;;;5024165;28;20052;-64
2022/06/29 08:13:44;;;;;;;3.35;1.85;;;22.90;83.80;;;;;;5004191;28;20057;-63
2022/06/29 08:16:10;;;;;;;3.65;1.90;;;22.90;82.00;;;;;;4992578;28;20412;-64
2022/06/29 08:18:36;;;;;;;5.05;2.10;;;23.00;82.00;;;;;;5019243;28;20046;-64
2022/06/29 08:21:03;;;;;;;3.95;1.90;;;23.00;80.90;;;;;;5018257;28;20060;-63
2022/06/29 08:23:30;;;;;;;3.72;1.90;;;23.10;79.90;;;;;;5016795;28;20049;-63
2022/06/29 08:25:57;;;;;;;5.18;1.92;;;23.10;78.70;;;;;;5017638;28;20170;-64
2022/06/29 08:28:25;;;;;;;2.60;1.92;;;23.20;78.40;;;;;;5019261;28;20045;-63
2022/06/29 08:30:51;;;;;;;3.60;1.90;;;23.30;78.50;;;;;;5017408;28;20060;-63
2022/06/29 08:33:17;;;;;;;2.80;1.80;;;23.30;77.90;;;;;;4996830;28;20045;-63
2022/06/29 08:35:43;;;;;;;3.72;1.88;;;23.40;78.00;;;;;;5009224;28;20050;-64
2022/06/29 08:38:09;;;;;;;3.78;2.08;;;23.40;78.10;;;;;;5000913;28;20045;-64
2022/06/29 08:40:44;;;;;;;4.90;1.95;;;23.40;77.70;;;;;;5015621;28;20052;-63
2022/06/29 08:43:16;;;;;;;3.35;2.00;;;23.40;78.80;;;;;;5008297;28;20511;-64
2022/06/29 08:45:47;;;;;;;2.47;1.80;;;23.50;78.80;;;;;;5027008;28;20115;-63
2022/06/29 08:48:14;;;;;;;6.47;1.83;;;23.60;79.50;;;;;;4994873;28;20111;-63
2022/06/29 08:50:42;;;;;;;3.42;1.85;;;23.70;79.10;;;;;;5006363;28;20411;-64
2022/06/29 08:53:12;;;;;;;3.42;1.63;;;23.80;78.50;;;;;;5020588;28;21018;-64
2022/06/29 08:55:43;;;;;;;2.75;1.63;;;23.80;78.10;;;;;;4997817;28;20474;-63
2022/06/29 08:58:19;;;;;;;3.45;2.22;;;23.90;78.30;;;;;;5024913;28;20140;-63
2022/06/29 09:00:46;;;;;;;5.57;1.90;;;23.90;78.50;;;;;;5005397;28;20754;-63
2022/06/29 09:03:14;;;;;;;5.00;1.80;;;24.00;78.30;;;;;;5003275;28;20048;-63
2022/06/29 09:05:39;;;;;;;4.50;1.83;;;24.10;78.50;;;;;;5020254;28;20132;-63
2022/06/29 09:08:05;;;;;;;4.50;2.17;;;24.20;78.30;;;;;;5024964;28;20088;-63
2022/06/29 09:10:31;;;;;;;7.05;2.42;;;24.20;77.70;;;;;;5017538;28;20037;-64
2022/06/29 09:12:58;;;;;;;3.42;1.98;;;24.20;77.10;;;;;;4989505;28;20128;-63
2022/06/29 09:15:33;;;;;;;3.83;2.00;;;24.30;77.70;;;;;;5021751;28;21133;-63
2022/06/29 09:18:00;;;;;;;5.95;2.10;;;24.40;78.00;;;;;;5025363;28;20046;-64
2022/06/29 09:20:51;;;;;;;6.53;2.22;;;24.50;78.10;;;;;;5007792;28;20045;-64
2022/06/29 09:23:18;;;;;;;6.65;2.10;;;24.70;78.40;;;;;;5020097;28;20172;-63
2022/06/29 09:25:44;;;;;;;2.55;1.70;;;24.90;77.00;;;;;;5002917;28;20045;-64
2022/06/29 09:28:23;;;;;;;3.65;1.85;;;25.10;76.90;;;;;;5021832;28;20055;-64
2022/06/29 09:30:52;;;;;;;7.53;2.00;;;25.20;75.90;;;;;;5009932;28;20117;-64
2022/06/29 09:33:21;;;;;;;5.00;2.20;;;25.30;74.30;;;;;;5012927;28;20166;-64
2022/06/29 09:36:04;;;;;;;4.22;2.08;;;25.40;73.80;;;;;;5017231;28;20621;-64
2022/06/29 09:38:30;;;;;;;2.67;1.83;;;25.40;75.10;;;;;;5008392;28;20049;-64
2022/06/29 09:41:08;;;;;;;2.92;1.80;;;25.50;73.40;;;;;;5015760;28;20053;-65
2022/06/29 09:43:39;;;;;;;2.97;1.88;;;25.60;74.20;;;;;;5022625;28;20535;-64
2022/06/29 09:46:06;;;;;;;5.95;1.90;;;25.80;74.30;;;;;;5017520;28;20808;-65
2022/06/29 09:48:34;;;;;;;4.20;1.92;;;25.90;72.70;;;;;;5015710;28;20049;-65
2022/06/29 09:51:30;;;;;;;5.40;1.90;;;25.90;72.20;;;;;;5026440;28;21084;-65
2022/06/29 09:53:49;;;;;;;3.97;1.90;;;25.90;71.10;;;;;;5002807;28;20446;-65
2022/06/29 09:56:19;;;;;;;6.40;1.95;;;26.00;71.10;;;;;;5012005;28;20085;-65
2022/06/29 09:58:47;;;;;;;5.50;1.83;;;26.10;70.50;;;;;;5020742;28;20055;-65
2022/06/29 10:04:00;;;;;;;3.83;1.95;;;26.40;69.90;;;;;;5008047;28;20141;-65
2022/06/29 10:06:26;;;;;;;3.13;1.80;;;26.60;69.90;;;;;;5021456;28;20504;-64
2022/06/29 10:08:53;;;;;;;4.20;1.98;;;26.70;69.30;;;;;;5027077;28;20056;-65
2022/06/29 10:14:45;;;;;;;4.60;1.90;;;27.10;69.40;;;;;;5018692;28;20226;-64
2022/06/29 10:17:40;;;;;;;5.07;1.83;;;27.20;67.70;;;;;;5012871;28;20041;-64
2022/06/29 10:20:09;;;;;;;2.90;1.80;;;27.30;66.90;;;;;;5015372;28;20049;-65
2022/06/29 10:22:35;;;;;;;11.93;2.03;;;27.50;65.00;;;;;;5025715;28;20492;-65
2022/06/29 10:25:07;;;;;;;2.58;1.50;;;27.60;63.10;;;;;;5014354;28;20051;-65
2022/06/29 10:27:33;;;;;;;4.38;1.80;;;27.60;62.50;;;;;;5004287;28;20049;-65
2022/06/29 10:30:19;;;;;;;3.95;1.88;;;27.70;62.00;;;;;;5006899;28;20050;-65
2022/06/29 10:32:45;;;;;;;1.77;1.60;;;27.80;61.10;;;;;;5021358;28;20119;-65
2022/06/29 10:35:11;;;;;;;2.30;1.60;;;27.90;60.00;;;;;;5000091;28;20057;-65
2022/06/29 10:37:54;;;;;;;4.97;1.80;;;28.00;59.80;;;;;;4972903;28;20048;-66
2022/06/29 10:40:24;;;;;;;2.38;1.85;;;28.00;59.20;;;;;;5027809;28;20380;-66
2022/06/29 10:43:08;;;;;;;4.60;1.85;;;28.00;59.10;;;;;;5020472;28;20053;-66
2022/06/29 10:45:36;;;;;;;5.15;1.75;;;28.00;58.30;;;;;;4993483;28;20560;-65
2022/06/29 10:48:07;;;;;;;1.80;1.70;;;28.00;59.40;;;;;;4995305;28;20052;-65
2022/06/29 10:50:34;;;;;;;3.08;1.70;;;28.00;58.40;;;;;;5027446;28;20046;-65
2022/06/29 10:53:05;;;;;;;5.03;1.80;;;28.10;56.90;;;;;;5021532;28;20408;-65
2022/06/29 10:55:33;;;;;;;3.45;1.80;;;28.10;56.50;;;;;;4994621;28;20571;-65
2022/06/29 10:58:00;;;;;;;5.22;1.60;;;28.10;56.60;;;;;;5020433;28;20099;-65
2022/06/29 11:00:28;;;;;;;7.85;1.70;;;28.00;56.50;;;;;;5031988;28;20107;-65
2022/06/29 11:02:55;;;;;;;1.52;1.42;;;28.00;56.30;;;;;;5014335;28;20568;-65
2022/06/29 11:05:21;;;;;;;3.40;1.80;;;28.10;56.40;;;;;;5020206;28;20056;-65
2022/06/29 11:13:27;;;;;;;1.83;1.50;;;28.80;57.50;;;;;;5017596;28;20049;-65
2022/06/29 11:15:55;;;;;;;2.70;1.80;;;28.80;56.70;;;;;;5023851;28;20048;-65
2022/06/29 11:18:26;;;;;;;3.20;1.50;;;28.80;56.20;;;;;;5010142;28;20045;-66
2022/06/29 11:20:53;;;;;;;3.88;1.60;;;28.90;56.00;;;;;;5013713;28;20100;-65
2022/06/29 11:23:24;;;;;;;4.10;1.40;;;29.00;55.90;;;;;;5008673;28;20594;-65
2022/06/29 11:25:54;;;;;;;1.95;1.38;;;29.10;56.10;;;;;;5008365;28;20041;-65
2022/06/29 11:28:28;;;;;;;5.63;1.90;;;29.10;55.00;;;;;;4995951;28;20557;-64
2022/06/29 11:31:06;;;;;;;3.63;1.75;;;29.10;55.10;;;;;;5007251;28;20396;-66
2022/06/29 11:33:37;;;;;;;5.80;1.30;;;29.30;57.00;;;;;;5015936;28;20050;-65
2022/06/29 11:36:07;;;;;;;4.15;1.50;;;29.50;56.30;;;;;;5020169;28;20053;-66
2022/06/29 11:38:41;;;;;;;2.95;1.65;;;29.50;55.10;;;;;;5006515;28;20099;-65
2022/06/29 11:41:19;;;;;;;8.27;1.50;;;29.60;54.40;;;;;;5016404;28;20049;-64
2022/06/29 11:43:56;;;;;;;2.63;1.48;;;29.60;54.70;;;;;;5016224;28;20048;-65
2022/06/29 11:46:24;;;;;;;1.75;1.20;;;29.70;54.50;;;;;;5012677;28;20056;-64
2022/06/29 11:51:47;;;;;;;2.70;1.33;;;29.90;52.50;;;;;;5020173;28;20040;-64
2022/06/29 11:54:13;;;;;;;3.05;1.20;;;30.00;52.60;;;;;;5003789;28;20068;-63
2022/06/29 11:56:42;;;;;;;2.75;1.60;;;30.10;51.60;;;;;;5011182;28;20597;-63
2022/06/29 11:59:10;;;;;;;2.53;1.50;;;30.10;51.10;;;;;;5009859;28;20933;-64
2022/06/29 12:01:36;;;;;;;1.50;1.40;;;30.30;51.30;;;;;;4991200;28;20038;-63
2022/06/29 12:04:03;;;;;;;5.00;1.40;;;30.30;51.50;;;;;;4991636;28;20064;-63
2022/06/29 12:06:35;;;;;;;4.60;1.20;;;30.40;51.80;;;;;;5014348;28;20128;-64
2022/06/29 12:09:01;;;;;;;2.40;1.63;;;30.60;51.30;;;;;;5013214;28;20052;-64
2022/06/29 12:11:27;;;;;;;3.13;1.23;;;30.80;51.60;;;;;;5017392;28;20395;-64
2022/06/29 12:13:53;;;;;;;2.55;1.40;;;31.00;51.40;;;;;;4985763;28;20046;-64
2022/06/29 12:16:19;;;;;;;3.63;1.40;;;31.10;49.90;;;;;;5019909;28;20083;-64
2022/06/29 12:18:45;;;;;;;1.40;1.30;;;31.20;49.50;;;;;;5007977;28;21165;-63
2022/06/29 12:21:11;;;;;;;3.20;1.98;;;31.20;49.40;;;;;;5020365;28;20382;-63
2022/06/29 12:23:37;;;;;;;4.30;1.60;;;31.10;49.70;;;;;;5016642;28;20630;-64
2022/06/29 12:26:03;;;;;;;1.98;1.65;;;31.10;49.10;;;;;;4988186;28;20045;-64
2022/06/29 12:28:29;;;;;;;4.35;1.83;;;31.10;49.00;;;;;;4993786;28;20048;-64
2022/06/29 12:30:55;;;;;;;4.05;1.40;;;31.10;49.60;;;;;;5017830;28;20812;-64
2022/06/29 12:33:21;;;;;;;5.85;1.92;;;31.00;50.20;;;;;;4986133;28;20115;-65
2022/06/29 12:35:49;;;;;;;3.53;1.80;;;31.10;50.00;;;;;;5013744;28;20046;-65
2022/06/29 12:38:15;;;;;;;11.10;1.77;;;31.30;51.10;;;;;;4993069;28;20123;-64
2022/06/29 12:40:40;;;;;;;3.95;2.00;;;31.40;51.30;;;;;;5019962;28;20495;-64
2022/06/29 12:43:06;;;;;;;3.58;1.73;;;31.30;50.30;;;;;;4997964;28;20049;-64
2022/06/29 12:45:33;;;;;;;2.58;2.00;;;31.20;50.10;;;;;;5016455;28;20056;-64
2022/06/29 12:47:59;;;;;;;1.90;1.80;;;31.30;50.70;;;;;;4976145;28;20048;-64
2022/06/29 12:50:25;;;;;;;5.47;1.90;;;31.40;50.10;;;;;;5008165;28;20044;-64
2022/06/29 12:52:51;;;;;;;6.00;2.22;;;31.50;50.50;;;;;;5008718;28;20503;-64
2022/06/29 12:55:19;;;;;;;3.67;2.30;;;31.60;51.00;;;;;;5007973;28;20053;-65
2022/06/29 12:57:46;;;;;;;6.40;2.30;;;31.70;50.00;;;;;;5018024;28;20069;-64
2022/06/29 13:00:13;;;;;;;4.25;2.50;;;31.70;50.70;;;;;;5011431;28;20104;-64
2022/06/29 13:02:40;;;;;;;2.50;2.30;;;31.80;50.30;;;;;;5016311;28;20140;-65
2022/06/29 13:05:10;;;;;;;2.70;2.50;;;31.90;51.40;;;;;;5021713;28;20053;-64